createdAt,value
2018-07-31T00:00:52.708Z,24.71
2018-07-31T00:03:22.383Z,24.75
2018-07-31T00:05:51.988Z,24.78
2018-07-31T00:08:21.727Z,24.77
2018-07-31T00:10:51.432Z,24.83
2018-07-31T00:13:21.164Z,24.82
2018-07-31T00:15:50.803Z,24.79
2018-07-31T00:18:20.452Z,24.71
2018-07-31T00:20:50.101Z,24.74
2018-07-31T00:23:19.735Z,24.80
2018-07-31T00:25:49.452Z,24.84
2018-07-31T00:28:19.126Z,24.85
2018-07-31T00:30:48.799Z,24.88
2018-07-31T00:33:18.591Z,24.92
2018-07-31T00:35:48.233Z,24.92
2018-07-31T00:38:17.907Z,24.95
2018-07-31T00:40:47.624Z,24.96
2018-07-31T00:43:17.251Z,24.94
2018-07-31T00:45:46.973Z,24.91
2018-07-31T00:48:16.604Z,24.83
2018-07-31T00:50:46.351Z,24.72
2018-07-31T00:53:15.972Z,24.64
2018-07-31T00:55:45.659Z,24.58
2018-07-31T00:58:15.372Z,24.56
2018-07-31T01:00:45.032Z,24.53
2018-07-31T01:03:14.667Z,24.50
2018-07-31T01:05:44.344Z,24.46
2018-07-31T01:08:13.976Z,24.43
2018-07-31T01:10:43.682Z,24.41
2018-07-31T01:13:13.352Z,24.38
2018-07-31T01:15:43.029Z,24.33
2018-07-31T01:18:12.672Z,24.29
2018-07-31T01:20:42.367Z,24.25
2018-07-31T01:23:11.993Z,24.21
2018-07-31T01:25:41.679Z,24.18
2018-07-31T01:28:11.376Z,24.15
2018-07-31T01:30:41.018Z,24.11
2018-07-31T01:33:10.656Z,24.10
2018-07-31T01:35:40.345Z,24.05
2018-07-31T01:38:10.026Z,24.02
2018-07-31T01:40:39.684Z,24.01
2018-07-31T01:43:09.390Z,24.00
2018-07-31T01:45:39.223Z,23.94
2018-07-31T01:48:09.223Z,23.88
2018-07-31T01:50:38.852Z,23.83
2018-07-31T01:53:08.509Z,23.74
2018-07-31T01:55:38.207Z,23.62
2018-07-31T01:58:07.886Z,23.55
2018-07-31T02:00:37.507Z,23.47
2018-07-31T02:03:07.347Z,23.36
2018-07-31T02:05:37.032Z,23.28
2018-07-31T02:08:07.080Z,23.17
2018-07-31T02:10:36.742Z,23.23
2018-07-31T02:13:06.443Z,23.19
2018-07-31T02:15:36.112Z,23.22
2018-07-31T02:18:05.819Z,23.20
2018-07-31T02:20:35.444Z,23.07
2018-07-31T02:23:05.141Z,23.01
2018-07-31T02:25:34.792Z,22.94
2018-07-31T02:28:04.534Z,22.85
2018-07-31T02:30:34.168Z,22.87
2018-07-31T02:33:03.796Z,22.91
2018-07-31T02:35:33.459Z,22.93
2018-07-31T02:38:03.131Z,22.91
2018-07-31T02:40:32.801Z,22.94
2018-07-31T02:43:02.439Z,22.91
2018-07-31T02:45:32.127Z,22.91
2018-07-31T02:48:01.753Z,22.94
2018-07-31T02:50:31.428Z,22.90
2018-07-31T02:53:01.144Z,22.81
2018-07-31T02:55:30.764Z,22.82
2018-07-31T02:58:00.405Z,22.69
2018-07-31T03:00:30.057Z,22.68
2018-07-31T03:02:59.663Z,22.60
2018-07-31T03:05:29.316Z,22.63
2018-07-31T03:07:59.036Z,22.59
2018-07-31T03:10:28.648Z,22.59
2018-07-31T03:12:58.339Z,22.63
2018-07-31T03:15:27.963Z,22.63
2018-07-31T03:17:57.624Z,22.58
2018-07-31T03:20:27.320Z,22.61
2018-07-31T03:22:56.945Z,22.63
2018-07-31T03:25:26.584Z,22.57
2018-07-31T03:27:56.475Z,22.59
2018-07-31T03:30:26.131Z,22.57
2018-07-31T03:32:55.788Z,22.60
2018-07-31T03:35:25.451Z,22.58
2018-07-31T03:37:55.082Z,22.54
2018-07-31T03:40:24.731Z,22.53
2018-07-31T03:42:54.401Z,22.53
2018-07-31T03:45:24.099Z,22.52
2018-07-31T03:47:53.720Z,22.48
2018-07-31T03:50:23.402Z,22.53
2018-07-31T03:52:53.102Z,22.51
2018-07-31T03:55:22.736Z,22.44
2018-07-31T03:57:52.432Z,22.46
2018-07-31T04:00:22.075Z,22.44
2018-07-31T04:02:51.744Z,22.25
2018-07-31T04:05:21.445Z,22.34
2018-07-31T04:07:51.487Z,22.28
2018-07-31T04:10:21.182Z,22.24
2018-07-31T04:12:50.816Z,22.33
2018-07-31T04:15:20.481Z,22.30
2018-07-31T04:17:53.653Z,22.23
2018-07-31T04:20:23.381Z,22.18
2018-07-31T04:22:53.293Z,22.36
2018-07-31T04:25:23.216Z,22.36
2018-07-31T04:27:52.827Z,22.46
2018-07-31T04:30:22.584Z,22.49
2018-07-31T04:32:52.243Z,22.47
2018-07-31T04:35:21.912Z,22.51
2018-07-31T04:37:51.581Z,22.50
2018-07-31T04:40:21.204Z,22.50
2018-07-31T04:42:50.821Z,22.47
2018-07-31T04:45:20.514Z,22.45
2018-07-31T04:47:50.132Z,22.56
2018-07-31T04:50:19.852Z,22.58
2018-07-31T04:52:49.463Z,22.64
2018-07-31T04:55:19.108Z,22.68
2018-07-31T04:57:48.752Z,22.83
2018-07-31T05:00:18.415Z,22.92
2018-07-31T05:02:48.061Z,23.02
2018-07-31T05:05:17.727Z,23.07
2018-07-31T05:07:47.348Z,23.16
2018-07-31T05:10:23.592Z,23.21
2018-07-31T05:12:53.238Z,23.24
2018-07-31T05:15:22.924Z,23.32
2018-07-31T05:17:52.564Z,23.48
2018-07-31T05:20:22.255Z,23.56
2018-07-31T05:22:51.885Z,23.69
2018-07-31T05:25:21.644Z,23.78
2018-07-31T05:27:51.335Z,23.89
2018-07-31T05:30:21.019Z,24.04
2018-07-31T05:32:50.848Z,24.14
2018-07-31T05:35:20.396Z,24.24
2018-07-31T05:37:50.061Z,24.35
2018-07-31T05:40:19.724Z,24.54
2018-07-31T05:42:49.435Z,24.63
2018-07-31T05:45:19.075Z,24.71
2018-07-31T05:47:48.720Z,24.82
2018-07-31T05:50:18.395Z,24.86
2018-07-31T05:52:48.024Z,24.89
2018-07-31T05:55:17.692Z,25.01
2018-07-31T05:57:47.414Z,25.08
2018-07-31T06:00:17.064Z,25.23
2018-07-31T06:02:46.723Z,25.28
2018-07-31T06:05:16.447Z,25.45
2018-07-31T06:07:46.067Z,25.54
2018-07-31T06:10:15.755Z,25.69
2018-07-31T06:12:45.467Z,25.80
2018-07-31T06:15:15.123Z,25.90
2018-07-31T06:17:44.724Z,26.03
2018-07-31T06:20:16.573Z,26.14
2018-07-31T06:22:47.765Z,26.31
2018-07-31T06:25:17.456Z,26.34
2018-07-31T06:27:47.103Z,26.49
2018-07-31T06:30:16.744Z,26.75
2018-07-31T06:32:46.427Z,26.89
2018-07-31T06:35:16.431Z,26.95
2018-07-31T06:37:46.120Z,27.16
2018-07-31T06:40:15.762Z,27.26
2018-07-31T06:42:45.383Z,27.31
2018-07-31T06:45:15.048Z,27.44
2018-07-31T06:47:44.672Z,27.54
2018-07-31T06:50:14.320Z,27.65
2018-07-31T06:52:43.968Z,27.72
2018-07-31T06:55:13.603Z,27.81
2018-07-31T06:57:43.291Z,27.90
2018-07-31T07:00:12.928Z,28.15
2018-07-31T07:02:42.540Z,28.38
2018-07-31T07:05:12.253Z,28.47
2018-07-31T07:07:41.894Z,28.61
2018-07-31T07:10:11.541Z,28.66
2018-07-31T07:12:41.216Z,28.82
2018-07-31T07:15:10.889Z,28.96
2018-07-31T07:17:40.951Z,29.08
2018-07-31T07:20:10.664Z,29.20
2018-07-31T07:22:40.333Z,29.22
2018-07-31T07:25:09.942Z,29.25
2018-07-31T07:27:39.625Z,29.47
2018-07-31T07:30:09.297Z,29.53
2018-07-31T07:32:38.925Z,29.60
2018-07-31T07:35:08.645Z,29.74
2018-07-31T07:37:38.344Z,29.84
2018-07-31T07:40:08.130Z,30.02
2018-07-31T07:42:37.787Z,30.22
2018-07-31T07:45:07.444Z,30.29
2018-07-31T07:47:37.120Z,30.36
2018-07-31T07:50:06.831Z,30.43
2018-07-31T07:52:36.535Z,30.42
2018-07-31T07:55:06.203Z,30.50
2018-07-31T07:57:35.855Z,30.60
2018-07-31T08:00:07.795Z,30.69
2018-07-31T08:02:38.040Z,30.97
2018-07-31T08:05:08.211Z,31.17
2018-07-31T08:07:37.856Z,31.27
2018-07-31T08:10:07.531Z,31.31
2018-07-31T08:12:37.170Z,31.42
2018-07-31T08:15:07.006Z,31.62
2018-07-31T08:17:36.716Z,31.67
2018-07-31T08:20:07.287Z,31.70
2018-07-31T08:22:37.059Z,31.81
2018-07-31T08:25:06.732Z,32.07
2018-07-31T08:27:36.404Z,32.27
2018-07-31T08:30:06.213Z,32.40
2018-07-31T08:32:35.875Z,32.50
2018-07-31T08:35:05.607Z,32.67
2018-07-31T08:37:35.310Z,32.87
2018-07-31T08:40:05.271Z,32.93
2018-07-31T08:42:34.956Z,33.05
2018-07-31T08:45:05.036Z,33.26
2018-07-31T08:47:34.708Z,33.42
2018-07-31T08:50:04.471Z,33.59
2018-07-31T08:52:34.156Z,33.62
2018-07-31T08:55:03.820Z,33.66
2018-07-31T08:57:33.457Z,33.68
2018-07-31T09:00:03.159Z,33.91
2018-07-31T09:02:32.774Z,33.92
2018-07-31T09:05:02.431Z,33.98
2018-07-31T09:07:32.107Z,34.21
2018-07-31T09:10:01.765Z,34.36
2018-07-31T09:12:31.424Z,34.52
2018-07-31T09:15:01.160Z,34.63
2018-07-31T09:17:30.828Z,34.75
2018-07-31T09:20:00.513Z,34.98
2018-07-31T09:22:30.236Z,35.16
2018-07-31T09:24:59.899Z,35.15
2018-07-31T09:27:29.632Z,35.29
2018-07-31T09:29:59.300Z,35.56
2018-07-31T09:32:34.200Z,35.59
2018-07-31T09:35:03.943Z,35.42
2018-07-31T09:37:33.621Z,35.55
2018-07-31T09:40:03.380Z,35.56
2018-07-31T09:42:33.050Z,35.56
2018-07-31T09:45:02.701Z,35.75
2018-07-31T09:47:32.400Z,36.02
2018-07-31T09:50:02.045Z,35.92
2018-07-31T09:52:31.724Z,36.13
2018-07-31T09:55:01.425Z,36.28
2018-07-31T09:57:31.064Z,36.25
2018-07-31T10:00:00.770Z,36.30
2018-07-31T10:02:30.462Z,36.31
2018-07-31T10:05:00.128Z,36.57
2018-07-31T10:07:31.041Z,36.68
2018-07-31T10:10:00.680Z,36.51
2018-07-31T10:12:30.433Z,36.44
2018-07-31T10:15:00.128Z,36.26
2018-07-31T10:17:29.791Z,36.59
2018-07-31T10:19:59.447Z,36.72
2018-07-31T10:22:29.159Z,36.24
2018-07-31T10:24:58.804Z,36.13
2018-07-31T10:27:28.440Z,35.68
2018-07-31T10:29:58.191Z,35.47
2018-07-31T10:32:27.944Z,35.40
2018-07-31T10:34:57.615Z,35.52
2018-07-31T10:37:27.328Z,35.82
2018-07-31T10:39:56.956Z,36.10
2018-07-31T10:42:26.628Z,36.40
2018-07-31T10:44:56.356Z,36.66
2018-07-31T10:47:26.012Z,36.90
2018-07-31T10:49:55.673Z,37.05
2018-07-31T10:52:25.861Z,37.30
2018-07-31T10:54:55.608Z,37.37
2018-07-31T10:57:25.371Z,37.30
2018-07-31T10:59:55.061Z,37.50
2018-07-31T11:02:24.747Z,37.48
2018-07-31T11:04:54.443Z,37.85
2018-07-31T11:07:24.124Z,38.18
2018-07-31T11:09:53.763Z,38.31
2018-07-31T11:12:23.448Z,38.60
2018-07-31T11:14:53.136Z,38.54
2018-07-31T11:17:22.776Z,38.04
2018-07-31T11:19:52.468Z,38.01
2018-07-31T11:22:22.231Z,37.84
2018-07-31T11:24:51.919Z,37.62
2018-07-31T11:27:21.654Z,37.43
2018-07-31T11:29:51.300Z,37.35
2018-07-31T11:32:21.012Z,37.30
2018-07-31T11:34:50.729Z,37.17
2018-07-31T11:37:20.463Z,37.08
2018-07-31T11:39:50.152Z,36.87
2018-07-31T11:42:19.820Z,36.81
2018-07-31T11:44:49.476Z,36.90
2018-07-31T11:47:19.160Z,37.05
2018-07-31T11:49:48.862Z,37.08
2018-07-31T11:52:18.497Z,37.01
2018-07-31T11:54:48.194Z,36.97
2018-07-31T11:57:17.875Z,37.06
2018-07-31T11:59:47.513Z,37.13
2018-07-31T12:02:17.259Z,37.23
2018-07-31T12:04:46.928Z,37.18
2018-07-31T12:07:16.576Z,37.21
2018-07-31T12:09:46.264Z,37.29
2018-07-31T12:12:15.905Z,37.24
2018-07-31T12:14:45.604Z,37.24
2018-07-31T12:17:15.248Z,37.26
2018-07-31T12:19:44.905Z,37.16
2018-07-31T12:22:14.597Z,37.09
2018-07-31T12:24:44.316Z,37.17
2018-07-31T12:27:14.220Z,37.27
2018-07-31T12:29:43.888Z,37.24
2018-07-31T12:32:13.833Z,37.11
2018-07-31T12:34:43.504Z,37.11
2018-07-31T12:37:13.244Z,36.97
2018-07-31T12:39:42.960Z,36.88
2018-07-31T12:42:12.635Z,36.73
2018-07-31T12:44:42.324Z,36.63
2018-07-31T12:47:12.016Z,36.63
2018-07-31T12:49:41.695Z,36.44
2018-07-31T12:52:11.387Z,36.62
2018-07-31T12:54:41.039Z,36.68
2018-07-31T12:57:10.668Z,36.96
2018-07-31T12:59:40.360Z,37.24
2018-07-31T13:02:09.984Z,37.36
2018-07-31T13:04:39.631Z,37.78
2018-07-31T13:07:09.413Z,38.24
2018-07-31T13:09:39.041Z,38.39
2018-07-31T13:12:08.758Z,38.06
2018-07-31T13:14:38.478Z,37.81
2018-07-31T13:17:08.176Z,37.66
2018-07-31T13:19:37.828Z,37.23
2018-07-31T13:22:07.540Z,37.26
2018-07-31T13:24:37.241Z,37.14
2018-07-31T13:27:06.956Z,37.51
2018-07-31T13:29:36.652Z,37.56
2018-07-31T13:32:06.364Z,37.41
2018-07-31T13:34:36.054Z,37.49
2018-07-31T13:37:05.803Z,37.84
2018-07-31T13:39:35.508Z,38.06
2018-07-31T13:42:05.227Z,38.20
2018-07-31T13:44:34.885Z,38.49
2018-07-31T13:47:04.715Z,38.90
2018-07-31T13:49:34.403Z,39.01
2018-07-31T13:52:04.106Z,38.63
2018-07-31T13:54:33.769Z,38.56
2018-07-31T13:57:03.484Z,38.62
2018-07-31T13:59:33.144Z,39.02
2018-07-31T14:02:02.808Z,38.92
2018-07-31T14:04:32.519Z,38.70
2018-07-31T14:07:02.205Z,38.68
2018-07-31T14:09:31.845Z,38.53
2018-07-31T14:12:01.564Z,38.31
2018-07-31T14:14:31.201Z,38.28
2018-07-31T14:17:00.876Z,38.08
2018-07-31T14:19:30.586Z,37.99
2018-07-31T14:22:00.279Z,37.74
2018-07-31T14:24:30.062Z,37.58
2018-07-31T14:26:59.707Z,37.23
2018-07-31T14:29:29.351Z,37.12
2018-07-31T14:31:59.003Z,37.07
2018-07-31T14:34:28.855Z,36.92
2018-07-31T14:36:58.516Z,36.87
2018-07-31T14:39:28.239Z,36.73
2018-07-31T14:41:57.911Z,36.69
2018-07-31T14:44:27.566Z,36.77
2018-07-31T14:46:57.327Z,36.92
2018-07-31T14:49:26.981Z,37.07
2018-07-31T14:51:56.642Z,37.05
2018-07-31T14:54:26.428Z,37.00
2018-07-31T14:56:56.143Z,37.03
2018-07-31T14:59:25.792Z,37.03
2018-07-31T15:01:55.496Z,36.93
2018-07-31T15:04:25.172Z,36.75
2018-07-31T15:06:54.823Z,36.59
2018-07-31T15:09:24.532Z,36.41
2018-07-31T15:11:54.202Z,36.27
2018-07-31T15:14:23.857Z,36.20
2018-07-31T15:16:53.630Z,36.09
2018-07-31T15:19:23.297Z,36.05
2018-07-31T15:21:52.956Z,36.14
2018-07-31T15:24:22.644Z,36.20
2018-07-31T15:26:52.319Z,36.28
2018-07-31T15:29:21.979Z,36.17
2018-07-31T15:31:51.699Z,36.14
2018-07-31T15:34:21.370Z,36.19
2018-07-31T15:36:51.098Z,36.13
2018-07-31T15:39:20.947Z,36.07
2018-07-31T15:41:50.585Z,35.95
2018-07-31T15:44:20.264Z,35.67
2018-07-31T15:46:49.896Z,35.63
2018-07-31T15:49:20.507Z,35.54
2018-07-31T15:51:50.189Z,35.48
2018-07-31T15:54:19.900Z,35.39
2018-07-31T15:56:49.596Z,35.32
2018-07-31T15:59:19.305Z,35.41
2018-07-31T16:01:48.967Z,35.48
2018-07-31T16:04:18.671Z,35.43
2018-07-31T16:06:48.389Z,35.54
2018-07-31T16:09:18.122Z,35.51
2018-07-31T16:11:47.771Z,35.54
2018-07-31T16:14:17.447Z,35.53
2018-07-31T16:16:47.171Z,35.56
2018-07-31T16:19:16.804Z,35.40
2018-07-31T16:21:46.473Z,35.37
2018-07-31T16:24:16.172Z,35.31
2018-07-31T16:26:45.823Z,35.26
2018-07-31T16:29:15.459Z,35.06
2018-07-31T16:31:45.147Z,35.07
2018-07-31T16:34:14.759Z,35.01
2018-07-31T16:36:44.391Z,35.03
2018-07-31T16:39:14.144Z,34.87
2018-07-31T16:41:43.787Z,34.82
2018-07-31T16:44:13.396Z,34.83
2018-07-31T16:46:43.092Z,34.81
2018-07-31T16:49:12.743Z,34.83
2018-07-31T16:51:42.398Z,34.86
2018-07-31T16:54:12.091Z,34.81
2018-07-31T16:56:41.703Z,34.70
2018-07-31T16:59:11.327Z,34.58
2018-07-31T17:01:40.988Z,34.49
2018-07-31T17:04:10.630Z,34.45
2018-07-31T17:06:40.327Z,34.27
2018-07-31T17:09:09.953Z,34.24
2018-07-31T17:11:39.585Z,34.13
2018-07-31T17:14:09.324Z,34.04
2018-07-31T17:16:38.951Z,33.96
2018-07-31T17:19:08.632Z,33.89
2018-07-31T17:21:38.263Z,33.91
2018-07-31T17:24:07.943Z,33.90
2018-07-31T17:26:37.628Z,33.86
2018-07-31T17:29:07.276Z,33.83
2018-07-31T17:31:36.895Z,33.76
2018-07-31T17:34:06.612Z,33.76
2018-07-31T17:36:36.285Z,33.71
2018-07-31T17:39:08.488Z,33.58
2018-07-31T17:41:38.477Z,33.57
2018-07-31T17:44:08.207Z,33.37
2018-07-31T17:46:37.867Z,33.40
2018-07-31T17:49:07.817Z,33.35
2018-07-31T17:51:37.520Z,33.31
2018-07-31T17:54:07.215Z,33.16
2018-07-31T17:56:36.843Z,33.13
2018-07-31T17:59:06.691Z,33.05
2018-07-31T18:01:36.404Z,33.04
2018-07-31T18:04:06.096Z,32.99
2018-07-31T18:06:35.751Z,32.90
2018-07-31T18:09:07.908Z,32.82
2018-07-31T18:11:38.004Z,32.78
2018-07-31T18:14:07.737Z,32.69
2018-07-31T18:16:37.848Z,32.65
2018-07-31T18:19:07.907Z,32.60
2018-07-31T18:21:37.616Z,32.55
2018-07-31T18:24:07.881Z,32.48
2018-07-31T18:26:37.715Z,32.39
2018-07-31T18:29:07.495Z,32.34
2018-07-31T18:31:37.139Z,32.30
2018-07-31T18:34:06.940Z,32.17
2018-07-31T18:36:36.627Z,32.16
2018-07-31T18:39:09.266Z,32.08
2018-07-31T18:41:38.964Z,31.95
2018-07-31T18:44:08.771Z,31.90
2018-07-31T18:46:38.491Z,31.80
2018-07-31T18:49:08.172Z,31.69
2018-07-31T18:51:37.790Z,31.63
2018-07-31T18:54:07.680Z,31.59
2018-07-31T18:56:37.380Z,31.51
2018-07-31T18:59:07.114Z,31.48
2018-07-31T19:01:36.787Z,31.43
2018-07-31T19:04:06.608Z,31.38
2018-07-31T19:06:36.372Z,31.22
2018-07-31T19:09:10.447Z,31.09
2018-07-31T19:11:41.214Z,30.90
2018-07-31T19:14:11.072Z,30.70
2018-07-31T19:16:40.700Z,30.49
2018-07-31T19:19:10.404Z,30.41
2018-07-31T19:21:40.072Z,30.23
2018-07-31T19:24:09.762Z,30.06
2018-07-31T19:26:39.536Z,29.91
2018-07-31T19:29:09.191Z,29.81
2018-07-31T19:31:38.861Z,29.77
2018-07-31T19:34:08.681Z,29.69
2018-07-31T19:36:38.360Z,29.59
2018-07-31T19:39:08.776Z,29.53
2018-07-31T19:41:38.783Z,29.36
2018-07-31T19:44:08.504Z,29.27
2018-07-31T19:46:38.240Z,29.21
2018-07-31T19:49:07.847Z,29.12
2018-07-31T19:51:37.537Z,29.04
2018-07-31T19:54:07.211Z,29.00
2018-07-31T19:56:36.860Z,28.88
2018-07-31T19:59:06.705Z,28.80
2018-07-31T20:01:36.327Z,28.71
2018-07-31T20:04:06.205Z,28.60
2018-07-31T20:06:35.865Z,28.56
2018-07-31T20:09:07.236Z,28.48
2018-07-31T20:11:37.009Z,28.41
2018-07-31T20:14:06.682Z,28.30
2018-07-31T20:16:36.354Z,28.22
2018-07-31T20:19:06.043Z,28.17
2018-07-31T20:21:35.683Z,28.17
2018-07-31T20:24:05.458Z,28.13
2018-07-31T20:26:35.168Z,28.08
2018-07-31T20:29:04.888Z,27.99
2018-07-31T20:31:34.849Z,27.97
2018-07-31T20:34:04.661Z,27.86
2018-07-31T20:36:34.831Z,27.84
2018-07-31T20:39:06.404Z,27.75
2018-07-31T20:41:36.107Z,27.70
2018-07-31T20:44:05.886Z,27.67
2018-07-31T20:46:35.583Z,27.54
2018-07-31T20:49:05.359Z,27.52
2018-07-31T20:51:35.015Z,27.48
2018-07-31T20:54:04.776Z,27.43
2018-07-31T20:56:34.504Z,27.42
2018-07-31T20:59:04.170Z,27.39
2018-07-31T21:01:33.843Z,27.41
2018-07-31T21:04:03.524Z,27.33
2018-07-31T21:06:33.195Z,27.26
2018-07-31T21:09:02.933Z,27.29
2018-07-31T21:11:32.633Z,27.14
2018-07-31T21:14:02.289Z,27.11
2018-07-31T21:16:31.971Z,27.09
2018-07-31T21:19:01.706Z,27.05
2018-07-31T21:21:31.372Z,27.00
2018-07-31T21:24:01.074Z,26.92
2018-07-31T21:26:30.739Z,27.01
2018-07-31T21:29:00.400Z,26.93
2018-07-31T21:31:30.095Z,26.90
2018-07-31T21:33:59.752Z,26.78
2018-07-31T21:36:29.387Z,26.77
2018-07-31T21:38:59.148Z,26.70
2018-07-31T21:41:28.856Z,26.66
2018-07-31T21:43:58.537Z,26.55
2018-07-31T21:46:28.238Z,26.51
2018-07-31T21:48:57.916Z,26.45
2018-07-31T21:51:27.557Z,26.38
2018-07-31T21:53:57.276Z,26.24
2018-07-31T21:56:26.927Z,26.28
2018-07-31T21:58:56.594Z,26.22
2018-07-31T22:01:26.297Z,26.11
2018-07-31T22:03:55.948Z,26.03
2018-07-31T22:06:25.595Z,26.11
2018-07-31T22:08:55.307Z,25.99
2018-07-31T22:11:24.962Z,25.97
2018-07-31T22:13:54.752Z,25.93
2018-07-31T22:16:24.446Z,25.82
2018-07-31T22:18:54.164Z,25.84
2018-07-31T22:21:23.820Z,25.74
2018-07-31T22:23:53.492Z,25.77
2018-07-31T22:26:23.145Z,25.74
2018-07-31T22:28:52.795Z,25.66
2018-07-31T22:31:22.488Z,25.67
2018-07-31T22:33:52.130Z,25.60
2018-07-31T22:36:21.790Z,25.60
2018-07-31T22:38:51.536Z,25.61
2018-07-31T22:41:21.212Z,25.61
2018-07-31T22:43:50.855Z,25.52
2018-07-31T22:46:20.599Z,25.51
2018-07-31T22:48:50.284Z,25.46
2018-07-31T22:51:20.069Z,25.39
2018-07-31T22:53:49.727Z,25.33
2018-07-31T22:56:19.376Z,25.40
2018-07-31T22:58:49.055Z,25.36
2018-07-31T23:01:18.724Z,25.37
2018-07-31T23:03:48.464Z,25.32
2018-07-31T23:06:18.183Z,25.24
2018-07-31T23:08:47.836Z,25.24
2018-07-31T23:11:17.488Z,25.15
2018-07-31T23:13:47.180Z,25.17
2018-07-31T23:16:16.882Z,25.17
2018-07-31T23:18:46.539Z,25.14
2018-07-31T23:21:16.280Z,25.02
2018-07-31T23:23:46.088Z,24.92
2018-07-31T23:26:15.736Z,24.80
2018-07-31T23:28:45.408Z,24.73
2018-07-31T23:31:15.039Z,24.56
2018-07-31T23:33:44.671Z,24.42
2018-07-31T23:36:14.409Z,24.40
2018-07-31T23:38:44.052Z,24.36
2018-07-31T23:41:13.691Z,24.34
2018-07-31T23:43:43.398Z,24.20
2018-07-31T23:46:13.012Z,24.11
2018-07-31T23:48:42.656Z,24.13
2018-07-31T23:51:12.356Z,24.11
2018-07-31T23:53:42.007Z,24.08
2018-07-31T23:56:11.679Z,24.05
2018-07-31T23:58:41.383Z,24.05
